KCON/CON METAR and TAF weather

Enter ICAO airport designator
Station Type Date Time Source
KCON METAR 2021/04/18 02:51 UTC NOAA

KCON 180251Z AUTO 34004KT 10SM BKN055 04/M01 A2978 RMK AO2 SLP086 T00441006 50002


Station Type Date Time Source
KCON Decoded METAR 2021/04/18 02:51 UTC NOAA

Concord, Concord Municipal Airport, NH, United States (KCON) 43-11-43N 071-30-04W 103M
Apr 17, 2021 - 10:51 PM EDT / 2021.04.18 0251 UTC
Wind: from the NNW (340 degrees) at 5 MPH (4 KT):0
Visibility: 10 mile(s):0
Sky conditions: mostly cloudy
Temperature: 39.9 F (4.4 C)
Dew Point: 30.9 F (-0.6 C)
Relative Humidity: 69%
Pressure (altimeter): 29.78 in. Hg (1008 hPa)
Pressure tendency: 0.01 inches (0.2 hPa) higher than three hours ago
ob: KCON 180251Z AUTO 34004KT 10SM BKN055 04/M01 A2978 RMK AO2 SLP086 T00441006 50002
cycle: 3

Station Type Date Time Source
KCON TAF 2021/04/17 18:40 UTC NOAA

TAF KCON 171738Z 1718/1818 34010KT P6SM OVC035
FM172300 33003KT P6SM SCT035
FM181400 31006KT P6SM BKN050

Example: see airport list